^^

Nearby METAR Reports

 

KBJC - Broomfield/Jeffc, Colorado, USA
Distance from station: ESE 4mi, 6km
Updated: 01/24/2020 11:12pm
Overcast
Overcast
 Wind from W
Wind: W 13 mph , 20 km/h
Temperature: 45°F , 7°C
Wind Chill: 39°F , 4°C
Dew Point: 19°F , -7°C
Humidity: 37%
Barometer: 1013.9 hPa
Clouds: Overcast
Visibility: 10 miles , 16 km
Cloud details: Partly cloudy 8000 ft
Overcast 9000 ft
2020/01/25 06:12 KBJC 250612Z AUTO 27011KT 10SM SCT080 OVC090 07/M07 A2994 RMK AO2
KBDU - Boulder Muni, Colorado, USA
Distance from station: NNW 8mi, 13km
Updated: 01/24/2020 11:12pm
Overcast
Overcast
 Wind from WNW
Wind: WNW 3 mph , 6 km/h
Temperature: 37°F , 3°C
Dew Point: 21°F , -6°C
Humidity: 52%
Barometer: 1013.9 hPa
Clouds: Overcast
Visibility: 10 miles , 16 km
Cloud details: Partly cloudy 8000 ft
Overcast 10000 ft
2020/01/25 06:12 KBDU 250612Z AUTO 30003KT 10SM SCT080 OVC100 03/M06 A2994 RMK AO2
 
KEIK - Erie Muni, Colorado, USA
Distance from station: NE 8mi, 14km
Updated: 01/24/2020 11:18pm
Clear
Clear
 Wind from NE
Wind: NE 5 mph , 7 km/h
Temperature: 32°F , 0°C
Wind Chill: 27°F , -3°C
Dew Point: 21°F , -6°C
Humidity: 64%
Barometer: 1015.6 hPa
Clouds: Clear
Visibility: 10 miles , 16 km
2020/01/25 06:18 KEIK 250618Z AUTO 04004KT 10SM CLR 00/M06 A2999 RMK AO2 T00001064
KLMO - Longmont/Vbrand, Colorado, USA
Distance from station: N 17mi, 27km
Updated: 01/24/2020 11:15pm
Partly cloudy
Partly cloudy
 Wind from calm
Wind: Calm
Temperature: 36°F , 2°C
Dew Point: 23°F , -5°C
Humidity: 60%
Barometer: 1014.6 hPa
Clouds: Partly cloudy
Visibility: 10 miles , 16 km
Cloud details: Partly cloudy 10000 ft
2020/01/25 06:15 KLMO 250615Z AUTO 00000KT 10SM SCT100 02/M05 A2996 RMK AO2 T00211053
 
KBKF - Buckley Angb/Den, Colorado, USA
Distance from station: ESE 26mi, 42km
Updated: 01/24/2020 10:58pm
Mostly cloudy
Mostly cloudy
 Wind from S
Wind: S 6 mph , 9 km/h
Temperature: 36°F , 2°C
Wind Chill: 31°F , -1°C
Dew Point: 18°F , -8°C
Humidity: 48%
Barometer: 1013.9 hPa
Clouds: Mostly cloudy
Visibility: 10 miles , 16 km
Cloud details: Mostly cloudy 8000 ft
Mostly cloudy 20000 ft
2020/01/25 05:58 KBKF 250558Z 19005KT 10SM BKN080 BKN200 02/M08 A2994 RMK AO2A SLP121 T00211080 10076 20006 50000
KDEN - Denver (dia), Colorado, USA
Distance from station: E 27mi, 44km
Updated: 01/24/2020 10:53pm
Mostly cloudy
Mostly cloudy
 Wind from SW
Wind: SW 6 mph , 9 km/h
Temperature: 36°F , 2°C
Wind Chill: 31°F , -1°C
Dew Point: 18°F , -8°C
Humidity: 48%
Barometer: 1013.5 hPa
Clouds: Mostly cloudy
Visibility: 10 miles , 16 km
Cloud details: Mostly cloudy 11000 ft
Mostly cloudy 22000 ft
2020/01/25 05:53 KDEN 250553Z 23005KT 10SM BKN110 BKN220 02/M08 A2993 RMK AO2 SLP120 T00221078 10067 20011 58001
 
KAPA - Denver/Arapahoe, Colorado, USA
Distance from station: SE 30mi, 48km
Updated: 01/24/2020 10:53pm
Mostly cloudy
Mostly cloudy
 Wind from SE
Wind: SE 3 mph , 6 km/h
Temperature: 36°F , 2°C
Dew Point: 19°F , -7°C
Humidity: 52%
Barometer: 1013.9 hPa
Clouds: Mostly cloudy
Visibility: 10 miles , 16 km
Cloud details: Mostly cloudy 10000 ft
Mostly cloudy 20000 ft
2020/01/25 05:53 KAPA 250553Z 14003KT 10SM BKN100 BKN200 02/M07 A2994 RMK AO2 SLP133 T00221072 10094 20017 50001
K0CO - Berthoud Pass, Colorado, USA
Distance from station: WSW 33mi, 54km
Updated: 01/24/2020 11:12pm
Overcast
Overcast
 Wind from NW
Wind: NW 25 mph , 41 km/h, Gust: 33 mph , 54 km/h
Temperature: 12°F , -11°C
Wind Chill: -8°F , -22°C
Dew Point: -0°F , -18°C
Humidity: 57%
Barometer: 1015.6 hPa
Clouds: Overcast
Cloud details: Overcast 200 ft
2020/01/25 06:12 K0CO 250612Z AUTO 31022G29KT OVC002 M11/M18 A2999 RMK AO2 PWINO
 
KFTG - Denver F. Range, Colorado, USA
Distance from station: ESE 34mi, 54km
Updated: 01/24/2020 11:12pm
Overcast
Overcast
 Wind from SSW
Wind: SSW 8 mph , 13 km/h
Temperature: 36°F , 2°C
Wind Chill: 30°F , -1°C
Dew Point: 19°F , -7°C
Humidity: 52%
Barometer: 1013.9 hPa
Clouds: Overcast
Visibility: 10 miles , 16 km
Cloud details: Overcast 11000 ft
2020/01/25 06:12 KFTG 250612Z AUTO 21007KT 10SM OVC110 02/M07 A2994 RMK AO2 T00241073
KFNL - Ft Collins/Loveland, Colorado, USA
Distance from station: N 37mi, 59km
Updated: 01/24/2020 10:56pm
Clear
Clear
 Wind from NW
Wind: NW 3 mph , 6 km/h
Temperature: 30°F , -1°C
Dew Point: 23°F , -5°C
Humidity: 75%
Barometer: 1014.2 hPa
Clouds: Clear
Visibility: 10 miles , 16 km
2020/01/25 05:56 KFNL 250556Z AUTO 32003KT 10SM CLR M01/M05 A2995 RMK AO2 SLP150 T10061050 10072 21006 51001 FZRANO
 
KCYS - Cheyenne, Wyoming, USA
Distance from station: NNE 95mi, 153km
Updated: 01/24/2020 10:53pm
Overcast
Overcast
 Wind from WSW
Wind: WSW 13 mph , 20 km/h
Temperature: 37°F , 3°C
Wind Chill: 29°F , -2°C
Dew Point: 21°F , -6°C
Humidity: 52%
Barometer: 1013.9 hPa
Clouds: Overcast
Visibility: 10 miles , 16 km
Cloud details: Overcast 11000 ft
2020/01/25 05:53 KCYS 250553Z AUTO 25011KT 10SM OVC110 03/M06 A2994 RMK AO2 SLP124 T00331061 10061 20028 53001
KCPR - Casper, Wyoming, USA
Distance from station: NNW 272mi, 438km
Updated: 01/24/2020 10:53pm
Clear
Clear
 Wind from SSW
Wind: SSW 14 mph , 22 km/h
Temperature: 34°F , 1°C
Wind Chill: 25°F , -4°C
Dew Point: 25°F , -4°C
Humidity: 70%
Barometer: 1013.5 hPa
Clouds: Clear
Visibility: 10 miles , 16 km
2020/01/25 05:53 KCPR 250553Z AUTO 21012KT 10SM CLR 01/M04 A2993 RMK AO2 SLP141 T00111039 10022 20000 53002
 
KGNB - Granby/Grand Co, Colorado, USA
Distance from station: WNW 42mi, 67km
Updated: 01/24/2020 11:17pm
Light snow, Overcast
Light snow, Overcast
 Wind from calm
Wind: Calm
Temperature: 27°F , -3°C
Dew Point: 23°F , -5°C
Humidity: 86%
Barometer: 1017.9 hPa
Summary: Light Snow
Clouds: Overcast
Visibility: 10 miles , 16 km
Cloud details: Overcast 1800 ft
2020/01/25 06:17 KGNB 250617Z AUTO 00000KT 10SM -SN OVC018 M03/M05 A3006 RMK AO2 T10321052
KGXY - Greeley/Weld, Colorado, USA
Distance from station: NE 44mi, 71km
Updated: 01/24/2020 10:56pm
Clear
Clear
 Wind from NW
Wind: NW 3 mph , 6 km/h
Temperature: 30°F , -1°C
Dew Point: 27°F , -3°C
Humidity: 86%
Barometer: 1014.2 hPa
Clouds: Clear
Visibility: 10 miles , 16 km
2020/01/25 05:56 KGXY 250556Z AUTO 32003KT 10SM CLR M01/M03 A2995 RMK AO2 SLP171 T10111028 10039 21022 58001 FZRANO
 
KMNH - Monument/Elbert, Colorado, USA
Distance from station: SSE 56mi, 90km
Updated: 01/24/2020 11:12pm
Partly cloudy
Partly cloudy
 Wind from SSW
Wind: SSW 9 mph , 15 km/h
Temperature: 32°F , 0°C
Wind Chill: 24°F , -4°C
Dew Point: 16°F , -9°C
Humidity: 51%
Barometer: 1015.2 hPa
Clouds: Partly cloudy
Visibility: 10 miles , 16 km
Cloud details: Partly cloudy 10000 ft
2020/01/25 06:12 KMNH 250612Z AUTO 21008KT 10SM SCT100 00/M09 A2998 RMK AO2